sensor_id;sensor_type;location;lat;lon;timestamp;temperature;humidity
6375;DHT22;35400;45.472;-122.822;2023-07-24T00:01:50;31.30;51.90
6375;DHT22;35400;45.472;-122.822;2023-07-24T00:04:17;31.30;52.30
6375;DHT22;35400;45.472;-122.822;2023-07-24T00:06:44;31.30;52.90
6375;DHT22;35400;45.472;-122.822;2023-07-24T00:09:11;31.30;53.00
6375;DHT22;35400;45.472;-122.822;2023-07-24T00:11:37;31.30;52.90
6375;DHT22;35400;45.472;-122.822;2023-07-24T00:14:04;31.30;52.60
6375;DHT22;35400;45.472;-122.822;2023-07-24T00:16:31;31.30;52.50
6375;DHT22;35400;45.472;-122.822;2023-07-24T00:18:58;31.20;52.20
6375;DHT22;35400;45.472;-122.822;2023-07-24T00:21:27;31.20;52.60
6375;DHT22;35400;45.472;-122.822;2023-07-24T00:23:54;31.30;52.20
6375;DHT22;35400;45.472;-122.822;2023-07-24T00:26:20;31.30;52.50
6375;DHT22;35400;45.472;-122.822;2023-07-24T00:28:48;31.20;52.00
6375;DHT22;35400;45.472;-122.822;2023-07-24T00:31:14;31.20;53.20
6375;DHT22;35400;45.472;-122.822;2023-07-24T00:33:43;31.10;53.50
6375;DHT22;35400;45.472;-122.822;2023-07-24T00:36:11;31.00;54.00
6375;DHT22;35400;45.472;-122.822;2023-07-24T00:38:39;31.00;52.80
6375;DHT22;35400;45.472;-122.822;2023-07-24T00:41:06;30.90;53.40
6375;DHT22;35400;45.472;-122.822;2023-07-24T00:43:33;30.90;53.40
6375;DHT22;35400;45.472;-122.822;2023-07-24T00:46:02;30.90;52.90
6375;DHT22;35400;45.472;-122.822;2023-07-24T00:48:29;30.90;52.90
6375;DHT22;35400;45.472;-122.822;2023-07-24T00:50:56;30.80;52.90
6375;DHT22;35400;45.472;-122.822;2023-07-24T00:53:23;30.80;52.90
6375;DHT22;35400;45.472;-122.822;2023-07-24T00:55:50;30.70;53.10
6375;DHT22;35400;45.472;-122.822;2023-07-24T00:58:17;30.70;53.60
6375;DHT22;35400;45.472;-122.822;2023-07-24T01:00:45;30.70;54.90
6375;DHT22;35400;45.472;-122.822;2023-07-24T01:03:12;30.60;54.20
6375;DHT22;35400;45.472;-122.822;2023-07-24T01:05:39;30.50;56.30
6375;DHT22;35400;45.472;-122.822;2023-07-24T01:08:08;30.40;56.70
6375;DHT22;35400;45.472;-122.822;2023-07-24T01:10:35;30.30;57.20
6375;DHT22;35400;45.472;-122.822;2023-07-24T01:13:21;30.10;57.30
6375;DHT22;35400;45.472;-122.822;2023-07-24T01:15:54;30.10;57.50
6375;DHT22;35400;45.472;-122.822;2023-07-24T01:18:24;30.00;57.60
6375;DHT22;35400;45.472;-122.822;2023-07-24T01:20:53;30.10;57.10
6375;DHT22;35400;45.472;-122.822;2023-07-24T01:26:00;30.10;56.00
6375;DHT22;35400;45.472;-122.822;2023-07-24T01:28:31;29.70;56.10
6375;DHT22;35400;45.472;-122.822;2023-07-24T01:30:57;29.50;56.60
6375;DHT22;35400;45.472;-122.822;2023-07-24T01:33:25;29.60;57.30
6375;DHT22;35400;45.472;-122.822;2023-07-24T01:36:01;29.60;56.40
6375;DHT22;35400;45.472;-122.822;2023-07-24T01:38:53;29.40;56.50
6375;DHT22;35400;45.472;-122.822;2023-07-24T01:41:20;29.50;56.70
6375;DHT22;35400;45.472;-122.822;2023-07-24T01:43:47;29.50;57.20
6375;DHT22;35400;45.472;-122.822;2023-07-24T01:46:14;29.60;57.40
6375;DHT22;35400;45.472;-122.822;2023-07-24T01:48:41;29.50;57.70
6375;DHT22;35400;45.472;-122.822;2023-07-24T01:51:08;29.40;58.20
6375;DHT22;35400;45.472;-122.822;2023-07-24T01:53:34;29.30;58.20
6375;DHT22;35400;45.472;-122.822;2023-07-24T01:56:02;29.00;58.60
6375;DHT22;35400;45.472;-122.822;2023-07-24T01:58:28;28.80;59.30
6375;DHT22;35400;45.472;-122.822;2023-07-24T02:00:56;28.60;60.10
6375;DHT22;35400;45.472;-122.822;2023-07-24T02:03:22;28.40;61.20
6375;DHT22;35400;45.472;-122.822;2023-07-24T02:05:50;28.30;61.60
6375;DHT22;35400;45.472;-122.822;2023-07-24T02:08:18;28.10;62.30
6375;DHT22;35400;45.472;-122.822;2023-07-24T02:10:49;28.00;62.80
6375;DHT22;35400;45.472;-122.822;2023-07-24T02:13:16;27.90;63.50
6375;DHT22;35400;45.472;-122.822;2023-07-24T02:15:48;27.90;64.60
6375;DHT22;35400;45.472;-122.822;2023-07-24T02:18:15;27.90;64.30
6375;DHT22;35400;45.472;-122.822;2023-07-24T02:20:49;27.80;64.50
6375;DHT22;35400;45.472;-122.822;2023-07-24T02:23:17;27.80;64.80
6375;DHT22;35400;45.472;-122.822;2023-07-24T02:25:44;27.80;65.10
6375;DHT22;35400;45.472;-122.822;2023-07-24T02:28:11;27.90;65.00
6375;DHT22;35400;45.472;-122.822;2023-07-24T02:30:39;28.30;64.80
6375;DHT22;35400;45.472;-122.822;2023-07-24T02:33:05;28.70;63.80
6375;DHT22;35400;45.472;-122.822;2023-07-24T02:35:38;28.80;63.00
6375;DHT22;35400;45.472;-122.822;2023-07-24T02:38:07;29.10;63.10
6375;DHT22;35400;45.472;-122.822;2023-07-24T02:40:35;29.50;62.50
6375;DHT22;35400;45.472;-122.822;2023-07-24T02:43:02;29.20;62.50
6375;DHT22;35400;45.472;-122.822;2023-07-24T02:45:29;29.10;63.10
6375;DHT22;35400;45.472;-122.822;2023-07-24T02:47:57;28.90;63.50
6375;DHT22;35400;45.472;-122.822;2023-07-24T02:50:23;28.60;64.50
6375;DHT22;35400;45.472;-122.822;2023-07-24T02:52:51;28.30;65.60
6375;DHT22;35400;45.472;-122.822;2023-07-24T02:55:18;28.10;66.10
6375;DHT22;35400;45.472;-122.822;2023-07-24T02:57:44;27.60;67.50
6375;DHT22;35400;45.472;-122.822;2023-07-24T03:00:12;27.30;68.40
6375;DHT22;35400;45.472;-122.822;2023-07-24T03:02:39;27.10;68.90
6375;DHT22;35400;45.472;-122.822;2023-07-24T03:05:06;26.80;69.90
6375;DHT22;35400;45.472;-122.822;2023-07-24T03:07:33;26.60;70.30
6375;DHT22;35400;45.472;-122.822;2023-07-24T03:10:01;26.40;70.80
6375;DHT22;35400;45.472;-122.822;2023-07-24T03:12:28;26.20;71.30
6375;DHT22;35400;45.472;-122.822;2023-07-24T03:14:54;26.10;71.80
6375;DHT22;35400;45.472;-122.822;2023-07-24T03:17:22;25.90;72.00
6375;DHT22;35400;45.472;-122.822;2023-07-24T03:19:54;26.00;72.20
6375;DHT22;35400;45.472;-122.822;2023-07-24T03:22:21;25.80;72.60
6375;DHT22;35400;45.472;-122.822;2023-07-24T03:24:48;25.70;72.90
6375;DHT22;35400;45.472;-122.822;2023-07-24T03:27:15;25.60;73.10
6375;DHT22;35400;45.472;-122.822;2023-07-24T03:29:42;25.40;73.50
6375;DHT22;35400;45.472;-122.822;2023-07-24T03:32:09;25.30;73.90
6375;DHT22;35400;45.472;-122.822;2023-07-24T03:34:35;25.10;74.30
6375;DHT22;35400;45.472;-122.822;2023-07-24T03:37:03;25.00;74.70
6375;DHT22;35400;45.472;-122.822;2023-07-24T03:39:30;25.00;75.10
6375;DHT22;35400;45.472;-122.822;2023-07-24T03:41:57;24.90;75.10
6375;DHT22;35400;45.472;-122.822;2023-07-24T03:44:24;24.80;75.30
6375;DHT22;35400;45.472;-122.822;2023-07-24T03:46:51;24.80;75.50
6375;DHT22;35400;45.472;-122.822;2023-07-24T03:49:18;24.60;75.60
6375;DHT22;35400;45.472;-122.822;2023-07-24T03:51:44;24.40;76.00
6375;DHT22;35400;45.472;-122.822;2023-07-24T03:54:11;24.20;76.60
6375;DHT22;35400;45.472;-122.822;2023-07-24T03:56:38;24.00;77.20
6375;DHT22;35400;45.472;-122.822;2023-07-24T03:59:06;24.00;77.10
6375;DHT22;35400;45.472;-122.822;2023-07-24T04:01:33;24.00;77.20
6375;DHT22;35400;45.472;-122.822;2023-07-24T04:03:59;23.80;77.60
6375;DHT22;35400;45.472;-122.822;2023-07-24T04:06:26;23.70;77.90
6375;DHT22;35400;45.472;-122.822;2023-07-24T04:08:53;23.60;78.40
6375;DHT22;35400;45.472;-122.822;2023-07-24T04:11:20;23.40;78.80
6375;DHT22;35400;45.472;-122.822;2023-07-24T04:13:47;23.20;79.20
6375;DHT22;35400;45.472;-122.822;2023-07-24T04:16:13;23.20;79.70
6375;DHT22;35400;45.472;-122.822;2023-07-24T04:18:41;23.00;79.60
6375;DHT22;35400;45.472;-122.822;2023-07-24T04:21:07;22.90;79.70
6375;DHT22;35400;45.472;-122.822;2023-07-24T04:23:34;22.90;79.90
6375;DHT22;35400;45.472;-122.822;2023-07-24T04:26:01;22.90;80.00
6375;DHT22;35400;45.472;-122.822;2023-07-24T04:28:28;22.80;80.20
6375;DHT22;35400;45.472;-122.822;2023-07-24T04:30:54;22.80;80.00
6375;DHT22;35400;45.472;-122.822;2023-07-24T04:33:21;22.80;79.90
6375;DHT22;35400;45.472;-122.822;2023-07-24T04:35:49;22.70;79.90
6375;DHT22;35400;45.472;-122.822;2023-07-24T04:38:16;22.70;79.70
6375;DHT22;35400;45.472;-122.822;2023-07-24T04:40:45;22.70;80.00
6375;DHT22;35400;45.472;-122.822;2023-07-24T04:43:12;22.60;79.80
6375;DHT22;35400;45.472;-122.822;2023-07-24T04:45:39;22.60;80.00
6375;DHT22;35400;45.472;-122.822;2023-07-24T04:48:06;22.50;80.30
6375;DHT22;35400;45.472;-122.822;2023-07-24T04:50:32;22.30;80.30
6375;DHT22;35400;45.472;-122.822;2023-07-24T04:52:59;22.20;80.30
6375;DHT22;35400;45.472;-122.822;2023-07-24T04:55:26;22.00;80.40
6375;DHT22;35400;45.472;-122.822;2023-07-24T04:57:53;22.00;80.70
6375;DHT22;35400;45.472;-122.822;2023-07-24T05:00:20;22.00;80.80
6375;DHT22;35400;45.472;-122.822;2023-07-24T05:02:47;21.90;81.00
6375;DHT22;35400;45.472;-122.822;2023-07-24T05:05:13;21.80;81.10
6375;DHT22;35400;45.472;-122.822;2023-07-24T05:07:40;21.80;81.40
6375;DHT22;35400;45.472;-122.822;2023-07-24T05:10:07;21.70;81.70
6375;DHT22;35400;45.472;-122.822;2023-07-24T05:12:34;21.60;81.70
6375;DHT22;35400;45.472;-122.822;2023-07-24T05:15:01;21.50;82.30
6375;DHT22;35400;45.472;-122.822;2023-07-24T05:17:28;21.30;82.50
6375;DHT22;35400;45.472;-122.822;2023-07-24T05:19:56;21.20;82.80
6375;DHT22;35400;45.472;-122.822;2023-07-24T05:22:23;21.10;82.70
6375;DHT22;35400;45.472;-122.822;2023-07-24T05:24:49;21.10;82.80
6375;DHT22;35400;45.472;-122.822;2023-07-24T05:27:16;20.90;82.80
6375;DHT22;35400;45.472;-122.822;2023-07-24T05:29:44;20.80;82.90
6375;DHT22;35400;45.472;-122.822;2023-07-24T05:32:11;20.80;82.90
6375;DHT22;35400;45.472;-122.822;2023-07-24T05:34:38;20.80;82.90
6375;DHT22;35400;45.472;-122.822;2023-07-24T05:37:05;20.80;82.80
6375;DHT22;35400;45.472;-122.822;2023-07-24T05:39:32;20.80;82.80
6375;DHT22;35400;45.472;-122.822;2023-07-24T05:41:59;20.80;82.70
6375;DHT22;35400;45.472;-122.822;2023-07-24T05:44:25;20.90;82.60
6375;DHT22;35400;45.472;-122.822;2023-07-24T05:46:52;20.90;82.60
6375;DHT22;35400;45.472;-122.822;2023-07-24T05:49:19;20.90;82.40
6375;DHT22;35400;45.472;-122.822;2023-07-24T05:51:46;20.90;82.20
6375;DHT22;35400;45.472;-122.822;2023-07-24T05:54:13;20.80;82.20
6375;DHT22;35400;45.472;-122.822;2023-07-24T05:56:39;20.80;82.20
6375;DHT22;35400;45.472;-122.822;2023-07-24T05:59:06;20.80;82.10
6375;DHT22;35400;45.472;-122.822;2023-07-24T06:01:33;20.80;82.20
6375;DHT22;35400;45.472;-122.822;2023-07-24T06:04:00;20.70;82.20
6375;DHT22;35400;45.472;-122.822;2023-07-24T06:06:27;20.70;82.50
6375;DHT22;35400;45.472;-122.822;2023-07-24T06:08:54;20.60;82.50
6375;DHT22;35400;45.472;-122.822;2023-07-24T06:11:21;20.60;82.60
6375;DHT22;35400;45.472;-122.822;2023-07-24T06:13:49;20.50;82.60
6375;DHT22;35400;45.472;-122.822;2023-07-24T06:16:16;20.50;82.80
6375;DHT22;35400;45.472;-122.822;2023-07-24T06:18:43;20.40;82.80
6375;DHT22;35400;45.472;-122.822;2023-07-24T06:21:10;20.40;82.90
6375;DHT22;35400;45.472;-122.822;2023-07-24T06:23:37;20.40;82.90
6375;DHT22;35400;45.472;-122.822;2023-07-24T06:26:04;20.40;83.00
6375;DHT22;35400;45.472;-122.822;2023-07-24T06:28:30;20.40;83.20
6375;DHT22;35400;45.472;-122.822;2023-07-24T06:30:58;20.30;83.10
6375;DHT22;35400;45.472;-122.822;2023-07-24T06:33:25;20.30;83.10
6375;DHT22;35400;45.472;-122.822;2023-07-24T06:35:52;20.20;83.20
6375;DHT22;35400;45.472;-122.822;2023-07-24T06:38:19;20.20;83.20
6375;DHT22;35400;45.472;-122.822;2023-07-24T06:40:47;20.20;83.30
6375;DHT22;35400;45.472;-122.822;2023-07-24T06:43:14;20.10;83.40
6375;DHT22;35400;45.472;-122.822;2023-07-24T06:45:41;20.10;83.80
6375;DHT22;35400;45.472;-122.822;2023-07-24T06:48:08;20.10;84.00
6375;DHT22;35400;45.472;-122.822;2023-07-24T06:50:35;20.00;83.90
6375;DHT22;35400;45.472;-122.822;2023-07-24T06:53:01;20.00;84.00
6375;DHT22;35400;45.472;-122.822;2023-07-24T06:55:28;19.90;84.00
6375;DHT22;35400;45.472;-122.822;2023-07-24T06:57:55;19.90;84.30
6375;DHT22;35400;45.472;-122.822;2023-07-24T07:00:22;19.80;84.40
6375;DHT22;35400;45.472;-122.822;2023-07-24T07:02:49;19.80;84.70
6375;DHT22;35400;45.472;-122.822;2023-07-24T07:05:15;19.70;84.80
6375;DHT22;35400;45.472;-122.822;2023-07-24T07:07:42;19.70;85.50
6375;DHT22;35400;45.472;-122.822;2023-07-24T07:10:09;19.60;84.90
6375;DHT22;35400;45.472;-122.822;2023-07-24T07:12:36;19.60;85.70
6375;DHT22;35400;45.472;-122.822;2023-07-24T07:15:03;19.50;85.60
6375;DHT22;35400;45.472;-122.822;2023-07-24T07:17:30;19.50;85.70
6375;DHT22;35400;45.472;-122.822;2023-07-24T07:19:57;19.50;86.00
6375;DHT22;35400;45.472;-122.822;2023-07-24T07:22:24;19.40;86.10
6375;DHT22;35400;45.472;-122.822;2023-07-24T07:24:50;19.40;86.80
6375;DHT22;35400;45.472;-122.822;2023-07-24T07:27:17;19.30;86.90
6375;DHT22;35400;45.472;-122.822;2023-07-24T07:29:44;19.20;88.30
6375;DHT22;35400;45.472;-122.822;2023-07-24T07:32:11;19.10;88.40
6375;DHT22;35400;45.472;-122.822;2023-07-24T07:34:38;19.10;88.60
6375;DHT22;35400;45.472;-122.822;2023-07-24T07:37:06;19.10;88.60
6375;DHT22;35400;45.472;-122.822;2023-07-24T07:39:33;19.10;88.70
6375;DHT22;35400;45.472;-122.822;2023-07-24T07:42:00;19.00;88.80
6375;DHT22;35400;45.472;-122.822;2023-07-24T07:44:27;19.00;89.50
6375;DHT22;35400;45.472;-122.822;2023-07-24T07:46:53;18.90;89.90
6375;DHT22;35400;45.472;-122.822;2023-07-24T07:49:20;18.80;90.00
6375;DHT22;35400;45.472;-122.822;2023-07-24T07:51:47;18.80;90.00
6375;DHT22;35400;45.472;-122.822;2023-07-24T07:54:14;18.80;90.00
6375;DHT22;35400;45.472;-122.822;2023-07-24T07:56:42;18.80;90.30
6375;DHT22;35400;45.472;-122.822;2023-07-24T07:59:08;18.70;90.60
6375;DHT22;35400;45.472;-122.822;2023-07-24T08:01:37;18.60;90.70
6375;DHT22;35400;45.472;-122.822;2023-07-24T08:04:05;18.60;90.80
6375;DHT22;35400;45.472;-122.822;2023-07-24T08:06:32;18.60;90.80
6375;DHT22;35400;45.472;-122.822;2023-07-24T08:08:59;18.50;90.80
6375;DHT22;35400;45.472;-122.822;2023-07-24T08:11:26;18.50;90.70
6375;DHT22;35400;45.472;-122.822;2023-07-24T08:13:53;18.50;90.80
6375;DHT22;35400;45.472;-122.822;2023-07-24T08:16:19;18.50;91.00
6375;DHT22;35400;45.472;-122.822;2023-07-24T08:18:47;18.50;91.00
6375;DHT22;35400;45.472;-122.822;2023-07-24T08:21:15;18.40;91.10
6375;DHT22;35400;45.472;-122.822;2023-07-24T08:23:42;18.40;91.20
6375;DHT22;35400;45.472;-122.822;2023-07-24T08:26:09;18.40;91.30
6375;DHT22;35400;45.472;-122.822;2023-07-24T08:28:35;18.40;91.40
6375;DHT22;35400;45.472;-122.822;2023-07-24T08:31:02;18.30;91.40
6375;DHT22;35400;45.472;-122.822;2023-07-24T08:33:29;18.30;91.60
6375;DHT22;35400;45.472;-122.822;2023-07-24T08:36:04;18.30;91.70
6375;DHT22;35400;45.472;-122.822;2023-07-24T08:38:32;18.20;91.80
6375;DHT22;35400;45.472;-122.822;2023-07-24T08:43:34;18.10;92.10
6375;DHT22;35400;45.472;-122.822;2023-07-24T08:46:02;18.10;92.30
6375;DHT22;35400;45.472;-122.822;2023-07-24T08:48:34;18.00;92.60
6375;DHT22;35400;45.472;-122.822;2023-07-24T08:51:07;17.90;92.60
6375;DHT22;35400;45.472;-122.822;2023-07-24T08:53:36;17.90;92.90
6375;DHT22;35400;45.472;-122.822;2023-07-24T08:56:11;17.90;93.00
6375;DHT22;35400;45.472;-122.822;2023-07-24T08:58:41;17.80;93.20
6375;DHT22;35400;45.472;-122.822;2023-07-24T09:01:09;17.70;93.40
6375;DHT22;35400;45.472;-122.822;2023-07-24T09:03:36;17.70;93.50
6375;DHT22;35400;45.472;-122.822;2023-07-24T09:06:03;17.70;93.80
6375;DHT22;35400;45.472;-122.822;2023-07-24T09:08:42;17.60;94.00
6375;DHT22;35400;45.472;-122.822;2023-07-24T09:11:10;17.60;94.20
6375;DHT22;35400;45.472;-122.822;2023-07-24T09:13:40;17.60;94.40
6375;DHT22;35400;45.472;-122.822;2023-07-24T09:16:20;17.50;94.60
6375;DHT22;35400;45.472;-122.822;2023-07-24T09:18:48;17.40;94.90
6375;DHT22;35400;45.472;-122.822;2023-07-24T09:21:30;17.40;95.20
6375;DHT22;35400;45.472;-122.822;2023-07-24T09:23:57;17.30;95.50
6375;DHT22;35400;45.472;-122.822;2023-07-24T09:26:24;17.30;95.80
6375;DHT22;35400;45.472;-122.822;2023-07-24T09:28:52;17.30;96.10
6375;DHT22;35400;45.472;-122.822;2023-07-24T09:31:19;17.20;96.50
6375;DHT22;35400;45.472;-122.822;2023-07-24T09:33:46;17.20;96.80
6375;DHT22;35400;45.472;-122.822;2023-07-24T09:36:13;17.10;97.20
6375;DHT22;35400;45.472;-122.822;2023-07-24T09:38:41;17.00;97.50
6375;DHT22;35400;45.472;-122.822;2023-07-24T09:41:07;17.00;97.90
6375;DHT22;35400;45.472;-122.822;2023-07-24T09:43:34;17.00;98.40
6375;DHT22;35400;45.472;-122.822;2023-07-24T09:46:05;16.90;98.80
6375;DHT22;35400;45.472;-122.822;2023-07-24T09:48:33;16.90;99.30
6375;DHT22;35400;45.472;-122.822;2023-07-24T09:51:01;16.80;99.80
6375;DHT22;35400;45.472;-122.822;2023-07-24T09:53:39;16.80;99.90
6375;DHT22;35400;45.472;-122.822;2023-07-24T09:56:10;16.70;99.90
6375;DHT22;35400;45.472;-122.822;2023-07-24T09:58:38;16.70;99.90
6375;DHT22;35400;45.472;-122.822;2023-07-24T10:01:07;16.60;99.90
6375;DHT22;35400;45.472;-122.822;2023-07-24T10:03:35;16.60;99.90
6375;DHT22;35400;45.472;-122.822;2023-07-24T10:06:02;16.50;99.90
6375;DHT22;35400;45.472;-122.822;2023-07-24T10:08:30;16.50;99.90
6375;DHT22;35400;45.472;-122.822;2023-07-24T10:10:59;16.40;99.90
6375;DHT22;35400;45.472;-122.822;2023-07-24T10:13:26;16.40;99.90
6375;DHT22;35400;45.472;-122.822;2023-07-24T10:15:55;16.30;99.90
6375;DHT22;35400;45.472;-122.822;2023-07-24T10:18:27;16.30;99.90
6375;DHT22;35400;45.472;-122.822;2023-07-24T10:21:05;16.20;99.90
6375;DHT22;35400;45.472;-122.822;2023-07-24T10:23:35;16.20;99.90
6375;DHT22;35400;45.472;-122.822;2023-07-24T10:26:05;16.20;99.90
6375;DHT22;35400;45.472;-122.822;2023-07-24T10:28:38;16.10;99.90
6375;DHT22;35400;45.472;-122.822;2023-07-24T10:31:20;16.10;99.90
6375;DHT22;35400;45.472;-122.822;2023-07-24T10:33:47;16.10;99.90
6375;DHT22;35400;45.472;-122.822;2023-07-24T10:36:18;16.00;99.90
6375;DHT22;35400;45.472;-122.822;2023-07-24T10:38:46;16.00;99.90
6375;DHT22;35400;45.472;-122.822;2023-07-24T10:41:14;15.90;99.90
6375;DHT22;35400;45.472;-122.822;2023-07-24T10:43:43;15.90;99.90
6375;DHT22;35400;45.472;-122.822;2023-07-24T10:46:10;15.90;99.90
6375;DHT22;35400;45.472;-122.822;2023-07-24T10:48:41;15.80;99.90
6375;DHT22;35400;45.472;-122.822;2023-07-24T10:51:09;15.80;99.90
6375;DHT22;35400;45.472;-122.822;2023-07-24T10:53:37;15.70;99.90
6375;DHT22;35400;45.472;-122.822;2023-07-24T10:56:05;15.70;99.90
6375;DHT22;35400;45.472;-122.822;2023-07-24T10:58:33;15.70;99.90
6375;DHT22;35400;45.472;-122.822;2023-07-24T11:01:04;15.60;99.90
6375;DHT22;35400;45.472;-122.822;2023-07-24T11:03:31;15.60;99.90
6375;DHT22;35400;45.472;-122.822;2023-07-24T11:05:59;15.60;99.90
6375;DHT22;35400;45.472;-122.822;2023-07-24T11:08:26;15.50;99.90
6375;DHT22;35400;45.472;-122.822;2023-07-24T11:10:55;15.50;99.90
6375;DHT22;35400;45.472;-122.822;2023-07-24T11:13:25;15.40;99.90
6375;DHT22;35400;45.472;-122.822;2023-07-24T11:15:54;15.40;99.90
6375;DHT22;35400;45.472;-122.822;2023-07-24T11:18:22;15.40;99.90
6375;DHT22;35400;45.472;-122.822;2023-07-24T11:20:52;15.30;99.90
6375;DHT22;35400;45.472;-122.822;2023-07-24T11:23:19;15.30;99.90
6375;DHT22;35400;45.472;-122.822;2023-07-24T11:25:46;15.20;99.90
6375;DHT22;35400;45.472;-122.822;2023-07-24T11:28:14;15.20;99.90
6375;DHT22;35400;45.472;-122.822;2023-07-24T11:30:42;15.20;99.90
6375;DHT22;35400;45.472;-122.822;2023-07-24T11:33:11;15.10;99.90
6375;DHT22;35400;45.472;-122.822;2023-07-24T11:35:40;15.10;99.90
6375;DHT22;35400;45.472;-122.822;2023-07-24T11:38:08;15.10;99.90
6375;DHT22;35400;45.472;-122.822;2023-07-24T11:40:43;15.00;99.90
6375;DHT22;35400;45.472;-122.822;2023-07-24T11:43:18;15.00;99.90
6375;DHT22;35400;45.472;-122.822;2023-07-24T11:45:46;15.00;99.90
6375;DHT22;35400;45.472;-122.822;2023-07-24T11:48:15;14.90;99.90
6375;DHT22;35400;45.472;-122.822;2023-07-24T11:50:46;14.90;99.90
6375;DHT22;35400;45.472;-122.822;2023-07-24T11:55:55;14.90;99.90
6375;DHT22;35400;45.472;-122.822;2023-07-24T11:58:25;14.90;99.90
6375;DHT22;35400;45.472;-122.822;2023-07-24T12:00:52;14.90;99.90
6375;DHT22;35400;45.472;-122.822;2023-07-24T12:03:20;14.90;99.90
6375;DHT22;35400;45.472;-122.822;2023-07-24T12:05:48;14.80;99.90
6375;DHT22;35400;45.472;-122.822;2023-07-24T12:08:14;14.80;99.90
6375;DHT22;35400;45.472;-122.822;2023-07-24T12:10:44;14.80;99.90
6375;DHT22;35400;45.472;-122.822;2023-07-24T12:13:11;14.80;99.90
6375;DHT22;35400;45.472;-122.822;2023-07-24T12:15:37;14.80;99.90
6375;DHT22;35400;45.472;-122.822;2023-07-24T12:18:05;14.70;99.90
6375;DHT22;35400;45.472;-122.822;2023-07-24T12:20:33;14.70;99.90
6375;DHT22;35400;45.472;-122.822;2023-07-24T12:23:01;14.70;99.90
6375;DHT22;35400;45.472;-122.822;2023-07-24T12:25:27;14.70;99.90
6375;DHT22;35400;45.472;-122.822;2023-07-24T12:27:54;14.70;99.90
6375;DHT22;35400;45.472;-122.822;2023-07-24T12:30:21;14.60;99.90
6375;DHT22;35400;45.472;-122.822;2023-07-24T12:32:48;14.60;99.90
6375;DHT22;35400;45.472;-122.822;2023-07-24T12:35:16;14.60;99.90
6375;DHT22;35400;45.472;-122.822;2023-07-24T12:37:44;14.60;99.90
6375;DHT22;35400;45.472;-122.822;2023-07-24T12:40:12;14.50;99.90
6375;DHT22;35400;45.472;-122.822;2023-07-24T12:42:39;14.50;99.90
6375;DHT22;35400;45.472;-122.822;2023-07-24T12:45:06;14.50;99.90
6375;DHT22;35400;45.472;-122.822;2023-07-24T12:47:33;14.50;99.90
6375;DHT22;35400;45.472;-122.822;2023-07-24T12:50:01;14.50;99.90
6375;DHT22;35400;45.472;-122.822;2023-07-24T12:52:29;14.40;99.90
6375;DHT22;35400;45.472;-122.822;2023-07-24T12:54:57;14.40;99.90
6375;DHT22;35400;45.472;-122.822;2023-07-24T12:57:23;14.40;99.90
6375;DHT22;35400;45.472;-122.822;2023-07-24T12:59:52;14.40;99.90
6375;DHT22;35400;45.472;-122.822;2023-07-24T13:02:19;14.30;99.90
6375;DHT22;35400;45.472;-122.822;2023-07-24T13:04:46;14.30;99.90
6375;DHT22;35400;45.472;-122.822;2023-07-24T13:07:13;14.30;99.90
6375;DHT22;35400;45.472;-122.822;2023-07-24T13:09:40;14.30;99.90
6375;DHT22;35400;45.472;-122.822;2023-07-24T13:12:07;14.30;99.90
6375;DHT22;35400;45.472;-122.822;2023-07-24T13:14:34;14.30;99.90
6375;DHT22;35400;45.472;-122.822;2023-07-24T13:17:01;14.30;99.90
6375;DHT22;35400;45.472;-122.822;2023-07-24T13:19:28;14.30;99.90
6375;DHT22;35400;45.472;-122.822;2023-07-24T13:21:55;14.40;99.90
6375;DHT22;35400;45.472;-122.822;2023-07-24T13:24:22;14.50;99.90
6375;DHT22;35400;45.472;-122.822;2023-07-24T13:26:48;14.40;99.90
6375;DHT22;35400;45.472;-122.822;2023-07-24T13:29:15;14.50;99.90
6375;DHT22;35400;45.472;-122.822;2023-07-24T13:31:42;14.50;99.90
6375;DHT22;35400;45.472;-122.822;2023-07-24T13:34:09;14.50;99.90
6375;DHT22;35400;45.472;-122.822;2023-07-24T13:36:36;14.50;99.90
6375;DHT22;35400;45.472;-122.822;2023-07-24T13:39:03;14.60;99.90
6375;DHT22;35400;45.472;-122.822;2023-07-24T13:41:30;14.60;99.90
6375;DHT22;35400;45.472;-122.822;2023-07-24T13:43:57;14.70;99.90
6375;DHT22;35400;45.472;-122.822;2023-07-24T13:46:24;14.80;99.90
6375;DHT22;35400;45.472;-122.822;2023-07-24T13:48:50;14.90;99.90
6375;DHT22;35400;45.472;-122.822;2023-07-24T13:51:17;15.10;99.90
6375;DHT22;35400;45.472;-122.822;2023-07-24T13:53:44;15.20;99.90
6375;DHT22;35400;45.472;-122.822;2023-07-24T13:56:13;15.40;99.90
6375;DHT22;35400;45.472;-122.822;2023-07-24T13:58:40;15.50;99.90
6375;DHT22;35400;45.472;-122.822;2023-07-24T14:01:08;15.70;99.90
6375;DHT22;35400;45.472;-122.822;2023-07-24T14:03:35;15.80;99.90
6375;DHT22;35400;45.472;-122.822;2023-07-24T14:06:02;16.00;99.90
6375;DHT22;35400;45.472;-122.822;2023-07-24T14:08:29;16.10;99.90
6375;DHT22;35400;45.472;-122.822;2023-07-24T14:10:56;16.20;99.90
6375;DHT22;35400;45.472;-122.822;2023-07-24T14:13:23;16.30;99.90
6375;DHT22;35400;45.472;-122.822;2023-07-24T14:15:49;16.50;99.90
6375;DHT22;35400;45.472;-122.822;2023-07-24T14:18:16;16.60;99.90
6375;DHT22;35400;45.472;-122.822;2023-07-24T14:20:44;16.60;99.90
6375;DHT22;35400;45.472;-122.822;2023-07-24T14:23:10;16.70;99.90
6375;DHT22;35400;45.472;-122.822;2023-07-24T14:25:37;16.90;99.90
6375;DHT22;35400;45.472;-122.822;2023-07-24T14:28:04;17.00;99.90
6375;DHT22;35400;45.472;-122.822;2023-07-24T14:30:31;17.10;99.90
6375;DHT22;35400;45.472;-122.822;2023-07-24T14:32:58;17.20;99.90
6375;DHT22;35400;45.472;-122.822;2023-07-24T14:35:24;17.30;99.90
6375;DHT22;35400;45.472;-122.822;2023-07-24T14:37:51;17.30;99.90
6375;DHT22;35400;45.472;-122.822;2023-07-24T14:40:18;17.40;99.90
6375;DHT22;35400;45.472;-122.822;2023-07-24T14:42:45;17.30;99.90
6375;DHT22;35400;45.472;-122.822;2023-07-24T14:45:12;17.40;99.90
6375;DHT22;35400;45.472;-122.822;2023-07-24T14:47:39;17.40;99.90
6375;DHT22;35400;45.472;-122.822;2023-07-24T14:50:06;17.40;99.90
6375;DHT22;35400;45.472;-122.822;2023-07-24T14:52:33;17.50;99.90
6375;DHT22;35400;45.472;-122.822;2023-07-24T14:55:00;17.50;99.90
6375;DHT22;35400;45.472;-122.822;2023-07-24T14:57:27;17.60;99.90
6375;DHT22;35400;45.472;-122.822;2023-07-24T14:59:54;17.70;99.90
6375;DHT22;35400;45.472;-122.822;2023-07-24T15:02:21;17.70;99.90
6375;DHT22;35400;45.472;-122.822;2023-07-24T15:04:47;17.70;99.90
6375;DHT22;35400;45.472;-122.822;2023-07-24T15:07:14;17.80;99.90
6375;DHT22;35400;45.472;-122.822;2023-07-24T15:09:42;17.80;99.90
6375;DHT22;35400;45.472;-122.822;2023-07-24T15:12:09;18.00;99.90
6375;DHT22;35400;45.472;-122.822;2023-07-24T15:14:36;17.90;99.90